sensor_id;sensor_type;location;lat;lon;timestamp;temperature;humidity
31747;DHT22;18319;48.974;8.462;2023-04-03T00:01:39;5.70;99.90
31747;DHT22;18319;48.974;8.462;2023-04-03T00:04:06;5.70;99.90
31747;DHT22;18319;48.974;8.462;2023-04-03T00:06:33;5.50;99.90
31747;DHT22;18319;48.974;8.462;2023-04-03T00:09:00;5.60;99.90
31747;DHT22;18319;48.974;8.462;2023-04-03T00:11:27;5.60;99.90
31747;DHT22;18319;48.974;8.462;2023-04-03T00:13:55;5.60;99.90
31747;DHT22;18319;48.974;8.462;2023-04-03T00:16:22;5.60;99.90
31747;DHT22;18319;48.974;8.462;2023-04-03T00:18:48;5.60;99.90
31747;DHT22;18319;48.974;8.462;2023-04-03T00:21:15;5.70;99.90
31747;DHT22;18319;48.974;8.462;2023-04-03T00:23:42;5.60;99.90
31747;DHT22;18319;48.974;8.462;2023-04-03T00:26:09;5.60;99.90
31747;DHT22;18319;48.974;8.462;2023-04-03T00:28:35;5.50;99.90
31747;DHT22;18319;48.974;8.462;2023-04-03T00:31:04;5.60;99.90
31747;DHT22;18319;48.974;8.462;2023-04-03T00:33:30;5.60;99.90
31747;DHT22;18319;48.974;8.462;2023-04-03T00:35:57;5.60;99.90
31747;DHT22;18319;48.974;8.462;2023-04-03T00:38:24;5.60;99.90
31747;DHT22;18319;48.974;8.462;2023-04-03T00:40:51;5.60;99.90
31747;DHT22;18319;48.974;8.462;2023-04-03T00:43:19;5.50;99.90
31747;DHT22;18319;48.974;8.462;2023-04-03T00:45:47;5.60;99.90
31747;DHT22;18319;48.974;8.462;2023-04-03T00:48:20;5.60;99.90
31747;DHT22;18319;48.974;8.462;2023-04-03T00:50:56;5.60;99.90
31747;DHT22;18319;48.974;8.462;2023-04-03T00:53:26;5.60;99.90
31747;DHT22;18319;48.974;8.462;2023-04-03T00:55:56;5.60;99.90
31747;DHT22;18319;48.974;8.462;2023-04-03T00:58:28;5.60;99.90
31747;DHT22;18319;48.974;8.462;2023-04-03T01:00:58;5.60;99.90
31747;DHT22;18319;48.974;8.462;2023-04-03T01:03:26;5.60;99.90
31747;DHT22;18319;48.974;8.462;2023-04-03T01:05:53;5.60;99.90
31747;DHT22;18319;48.974;8.462;2023-04-03T01:08:20;5.60;99.90
31747;DHT22;18319;48.974;8.462;2023-04-03T01:10:47;5.60;99.90
31747;DHT22;18319;48.974;8.462;2023-04-03T01:13:24;5.50;99.90
31747;DHT22;18319;48.974;8.462;2023-04-03T01:15:52;5.50;99.90
31747;DHT22;18319;48.974;8.462;2023-04-03T01:18:19;5.50;99.90
31747;DHT22;18319;48.974;8.462;2023-04-03T01:23:58;5.40;99.90
31747;DHT22;18319;48.974;8.462;2023-04-03T01:26:27;5.30;99.90
31747;DHT22;18319;48.974;8.462;2023-04-03T01:28:55;5.30;99.90
31747;DHT22;18319;48.974;8.462;2023-04-03T01:31:25;5.20;99.90
31747;DHT22;18319;48.974;8.462;2023-04-03T01:33:54;5.20;99.90
31747;DHT22;18319;48.974;8.462;2023-04-03T01:36:23;5.20;99.90
31747;DHT22;18319;48.974;8.462;2023-04-03T01:38:50;5.10;99.90
31747;DHT22;18319;48.974;8.462;2023-04-03T01:41:17;5.10;99.90
31747;DHT22;18319;48.974;8.462;2023-04-03T01:43:46;5.10;99.90
31747;DHT22;18319;48.974;8.462;2023-04-03T01:46:13;5.00;99.90
31747;DHT22;18319;48.974;8.462;2023-04-03T01:48:40;5.00;99.90
31747;DHT22;18319;48.974;8.462;2023-04-03T01:51:08;5.00;99.90
31747;DHT22;18319;48.974;8.462;2023-04-03T01:53:35;5.00;99.90
31747;DHT22;18319;48.974;8.462;2023-04-03T01:56:03;5.00;99.90
31747;DHT22;18319;48.974;8.462;2023-04-03T01:58:30;4.90;99.90
31747;DHT22;18319;48.974;8.462;2023-04-03T02:00:56;4.90;99.90
31747;DHT22;18319;48.974;8.462;2023-04-03T02:03:23;4.80;99.90
31747;DHT22;18319;48.974;8.462;2023-04-03T02:05:50;4.80;99.90
31747;DHT22;18319;48.974;8.462;2023-04-03T02:08:18;4.80;99.90
31747;DHT22;18319;48.974;8.462;2023-04-03T02:10:47;4.70;99.90
31747;DHT22;18319;48.974;8.462;2023-04-03T02:13:13;4.70;99.90
31747;DHT22;18319;48.974;8.462;2023-04-03T02:15:40;4.60;99.90
31747;DHT22;18319;48.974;8.462;2023-04-03T02:18:08;4.60;99.90
31747;DHT22;18319;48.974;8.462;2023-04-03T02:20:35;4.60;99.90
31747;DHT22;18319;48.974;8.462;2023-04-03T02:23:01;4.50;99.90
31747;DHT22;18319;48.974;8.462;2023-04-03T02:25:30;4.50;99.90
31747;DHT22;18319;48.974;8.462;2023-04-03T02:27:57;4.40;99.90
31747;DHT22;18319;48.974;8.462;2023-04-03T02:30:23;4.30;99.90
31747;DHT22;18319;48.974;8.462;2023-04-03T02:32:50;4.30;99.90
31747;DHT22;18319;48.974;8.462;2023-04-03T02:35:17;4.20;99.90
31747;DHT22;18319;48.974;8.462;2023-04-03T02:37:44;4.10;99.90
31747;DHT22;18319;48.974;8.462;2023-04-03T02:40:11;4.10;99.90
31747;DHT22;18319;48.974;8.462;2023-04-03T02:42:39;4.00;99.90
31747;DHT22;18319;48.974;8.462;2023-04-03T02:45:07;3.90;99.90
31747;DHT22;18319;48.974;8.462;2023-04-03T02:47:33;3.90;99.90
31747;DHT22;18319;48.974;8.462;2023-04-03T02:50:00;3.80;99.90
31747;DHT22;18319;48.974;8.462;2023-04-03T02:52:27;3.80;99.90
31747;DHT22;18319;48.974;8.462;2023-04-03T02:54:54;3.70;99.90
31747;DHT22;18319;48.974;8.462;2023-04-03T02:57:21;3.70;99.90
31747;DHT22;18319;48.974;8.462;2023-04-03T02:59:49;3.70;99.90
31747;DHT22;18319;48.974;8.462;2023-04-03T03:02:16;3.70;99.90
31747;DHT22;18319;48.974;8.462;2023-04-03T03:04:42;3.70;99.90
31747;DHT22;18319;48.974;8.462;2023-04-03T03:07:09;3.70;99.90
31747;DHT22;18319;48.974;8.462;2023-04-03T03:09:36;3.70;99.90
31747;DHT22;18319;48.974;8.462;2023-04-03T03:12:03;3.60;99.90
31747;DHT22;18319;48.974;8.462;2023-04-03T03:14:30;3.60;99.90
31747;DHT22;18319;48.974;8.462;2023-04-03T03:16:58;3.60;99.90
31747;DHT22;18319;48.974;8.462;2023-04-03T03:19:25;3.70;99.90
31747;DHT22;18319;48.974;8.462;2023-04-03T03:21:52;3.70;99.90
31747;DHT22;18319;48.974;8.462;2023-04-03T03:24:18;3.70;99.90
31747;DHT22;18319;48.974;8.462;2023-04-03T03:26:45;3.70;99.90
31747;DHT22;18319;48.974;8.462;2023-04-03T03:29:12;3.80;99.90
31747;DHT22;18319;48.974;8.462;2023-04-03T03:31:39;3.80;99.90
31747;DHT22;18319;48.974;8.462;2023-04-03T03:34:07;3.80;99.90
31747;DHT22;18319;48.974;8.462;2023-04-03T03:36:33;3.80;99.90
31747;DHT22;18319;48.974;8.462;2023-04-03T03:39:00;3.80;99.90
31747;DHT22;18319;48.974;8.462;2023-04-03T03:41:27;3.80;99.90
31747;DHT22;18319;48.974;8.462;2023-04-03T03:43:54;3.90;99.90
31747;DHT22;18319;48.974;8.462;2023-04-03T03:46:21;3.90;99.90
31747;DHT22;18319;48.974;8.462;2023-04-03T03:48:47;3.90;99.90
31747;DHT22;18319;48.974;8.462;2023-04-03T03:51:16;4.00;99.90
31747;DHT22;18319;48.974;8.462;2023-04-03T03:53:42;4.00;99.90
31747;DHT22;18319;48.974;8.462;2023-04-03T03:56:10;4.00;99.90
31747;DHT22;18319;48.974;8.462;2023-04-03T03:58:36;4.10;99.90
31747;DHT22;18319;48.974;8.462;2023-04-03T04:01:04;4.10;99.90
31747;DHT22;18319;48.974;8.462;2023-04-03T04:03:32;4.20;99.90
31747;DHT22;18319;48.974;8.462;2023-04-03T04:05:58;4.20;99.90
31747;DHT22;18319;48.974;8.462;2023-04-03T04:08:26;4.10;99.90
31747;DHT22;18319;48.974;8.462;2023-04-03T04:10:53;4.10;99.90
31747;DHT22;18319;48.974;8.462;2023-04-03T04:13:20;4.10;99.90
31747;DHT22;18319;48.974;8.462;2023-04-03T04:15:47;4.10;99.90
31747;DHT22;18319;48.974;8.462;2023-04-03T04:18:14;4.20;99.90
31747;DHT22;18319;48.974;8.462;2023-04-03T04:20:41;4.10;99.90
31747;DHT22;18319;48.974;8.462;2023-04-03T04:23:07;4.20;99.90
31747;DHT22;18319;48.974;8.462;2023-04-03T04:25:35;4.30;99.90
31747;DHT22;18319;48.974;8.462;2023-04-03T04:28:02;4.30;99.90
31747;DHT22;18319;48.974;8.462;2023-04-03T04:30:29;4.30;99.90
31747;DHT22;18319;48.974;8.462;2023-04-03T04:32:56;4.30;99.90
31747;DHT22;18319;48.974;8.462;2023-04-03T04:35:23;4.30;99.90
31747;DHT22;18319;48.974;8.462;2023-04-03T04:37:49;4.20;99.90
31747;DHT22;18319;48.974;8.462;2023-04-03T04:40:16;4.20;99.90
31747;DHT22;18319;48.974;8.462;2023-04-03T04:42:44;4.20;99.90
31747;DHT22;18319;48.974;8.462;2023-04-03T04:45:11;4.20;99.90
31747;DHT22;18319;48.974;8.462;2023-04-03T04:47:38;4.20;99.90
31747;DHT22;18319;48.974;8.462;2023-04-03T04:50:11;4.20;99.90
31747;DHT22;18319;48.974;8.462;2023-04-03T04:52:38;4.10;99.90
31747;DHT22;18319;48.974;8.462;2023-04-03T04:55:06;4.00;99.90
31747;DHT22;18319;48.974;8.462;2023-04-03T04:57:32;4.00;99.90
31747;DHT22;18319;48.974;8.462;2023-04-03T05:00:02;3.90;99.90
31747;DHT22;18319;48.974;8.462;2023-04-03T05:02:29;3.80;99.90
31747;DHT22;18319;48.974;8.462;2023-04-03T05:04:56;3.90;99.90
31747;DHT22;18319;48.974;8.462;2023-04-03T05:07:23;3.90;99.90
31747;DHT22;18319;48.974;8.462;2023-04-03T05:09:49;3.90;99.90
31747;DHT22;18319;48.974;8.462;2023-04-03T05:12:16;3.90;99.90
31747;DHT22;18319;48.974;8.462;2023-04-03T05:14:43;3.90;99.90
31747;DHT22;18319;48.974;8.462;2023-04-03T05:17:11;3.90;99.90
31747;DHT22;18319;48.974;8.462;2023-04-03T05:19:38;3.90;99.90
31747;DHT22;18319;48.974;8.462;2023-04-03T05:22:05;3.80;99.90
31747;DHT22;18319;48.974;8.462;2023-04-03T05:24:32;3.70;99.90
31747;DHT22;18319;48.974;8.462;2023-04-03T05:26:58;3.70;99.90
31747;DHT22;18319;48.974;8.462;2023-04-03T05:29:25;3.60;99.90
31747;DHT22;18319;48.974;8.462;2023-04-03T05:31:52;3.60;99.90
31747;DHT22;18319;48.974;8.462;2023-04-03T05:34:20;3.60;99.90
31747;DHT22;18319;48.974;8.462;2023-04-03T05:36:47;3.60;99.90
31747;DHT22;18319;48.974;8.462;2023-04-03T05:39:14;3.70;99.90
31747;DHT22;18319;48.974;8.462;2023-04-03T05:41:40;3.80;99.90
31747;DHT22;18319;48.974;8.462;2023-04-03T05:44:07;3.80;99.90
31747;DHT22;18319;48.974;8.462;2023-04-03T05:46:34;3.90;99.90
31747;DHT22;18319;48.974;8.462;2023-04-03T05:49:01;4.00;99.90
31747;DHT22;18319;48.974;8.462;2023-04-03T05:51:32;4.20;99.90
31747;DHT22;18319;48.974;8.462;2023-04-03T05:54:05;4.20;99.90
31747;DHT22;18319;48.974;8.462;2023-04-03T05:56:33;4.20;99.90
31747;DHT22;18319;48.974;8.462;2023-04-03T05:59:00;4.30;99.90
31747;DHT22;18319;48.974;8.462;2023-04-03T06:01:27;4.40;99.90
31747;DHT22;18319;48.974;8.462;2023-04-03T06:03:53;4.50;99.90
31747;DHT22;18319;48.974;8.462;2023-04-03T06:06:21;4.50;99.90
31747;DHT22;18319;48.974;8.462;2023-04-03T06:08:50;4.60;99.90
31747;DHT22;18319;48.974;8.462;2023-04-03T06:11:16;4.60;99.90
31747;DHT22;18319;48.974;8.462;2023-04-03T06:13:43;4.70;99.90
31747;DHT22;18319;48.974;8.462;2023-04-03T06:16:12;4.80;99.90
31747;DHT22;18319;48.974;8.462;2023-04-03T06:18:40;4.90;99.90
31747;DHT22;18319;48.974;8.462;2023-04-03T06:21:07;5.00;99.90
31747;DHT22;18319;48.974;8.462;2023-04-03T06:23:34;5.10;99.90
31747;DHT22;18319;48.974;8.462;2023-04-03T06:26:02;5.10;99.90
31747;DHT22;18319;48.974;8.462;2023-04-03T06:28:29;5.10;99.90
31747;DHT22;18319;48.974;8.462;2023-04-03T06:30:56;5.20;99.90
31747;DHT22;18319;48.974;8.462;2023-04-03T06:33:23;5.30;99.90
31747;DHT22;18319;48.974;8.462;2023-04-03T06:35:49;5.20;99.90
31747;DHT22;18319;48.974;8.462;2023-04-03T06:38:22;5.40;99.90
31747;DHT22;18319;48.974;8.462;2023-04-03T06:40:48;5.40;99.90
31747;DHT22;18319;48.974;8.462;2023-04-03T06:43:18;5.40;99.90
31747;DHT22;18319;48.974;8.462;2023-04-03T06:45:46;5.30;99.90
31747;DHT22;18319;48.974;8.462;2023-04-03T06:48:13;5.20;99.90
31747;DHT22;18319;48.974;8.462;2023-04-03T06:50:39;5.20;99.90
31747;DHT22;18319;48.974;8.462;2023-04-03T06:53:06;5.30;99.90
31747;DHT22;18319;48.974;8.462;2023-04-03T06:55:33;5.40;99.90
31747;DHT22;18319;48.974;8.462;2023-04-03T06:58:00;5.40;99.90
31747;DHT22;18319;48.974;8.462;2023-04-03T07:00:28;5.40;99.90
31747;DHT22;18319;48.974;8.462;2023-04-03T07:02:55;5.60;99.90
31747;DHT22;18319;48.974;8.462;2023-04-03T07:05:23;6.00;99.90
31747;DHT22;18319;48.974;8.462;2023-04-03T07:07:50;6.20;99.90
31747;DHT22;18319;48.974;8.462;2023-04-03T07:10:17;6.20;99.90
31747;DHT22;18319;48.974;8.462;2023-04-03T07:12:44;6.30;99.90
31747;DHT22;18319;48.974;8.462;2023-04-03T07:15:11;6.40;99.90
31747;DHT22;18319;48.974;8.462;2023-04-03T07:17:41;6.50;99.90
31747;DHT22;18319;48.974;8.462;2023-04-03T07:20:08;6.50;99.90
31747;DHT22;18319;48.974;8.462;2023-04-03T07:22:36;6.80;99.90
31747;DHT22;18319;48.974;8.462;2023-04-03T07:25:03;6.80;99.90
31747;DHT22;18319;48.974;8.462;2023-04-03T07:27:32;6.80;99.90
31747;DHT22;18319;48.974;8.462;2023-04-03T07:29:59;7.00;99.90
31747;DHT22;18319;48.974;8.462;2023-04-03T07:32:26;7.20;99.90
31747;DHT22;18319;48.974;8.462;2023-04-03T07:34:54;7.60;99.90
31747;DHT22;18319;48.974;8.462;2023-04-03T07:37:21;7.60;99.90
31747;DHT22;18319;48.974;8.462;2023-04-03T07:39:48;8.20;99.90
31747;DHT22;18319;48.974;8.462;2023-04-03T07:42:15;8.60;99.90
31747;DHT22;18319;48.974;8.462;2023-04-03T07:44:41;9.00;99.90
31747;DHT22;18319;48.974;8.462;2023-04-03T07:47:08;9.60;99.90
31747;DHT22;18319;48.974;8.462;2023-04-03T07:49:35;9.80;99.90
31747;DHT22;18319;48.974;8.462;2023-04-03T07:52:06;10.20;99.90
31747;DHT22;18319;48.974;8.462;2023-04-03T07:54:34;10.20;99.90
31747;DHT22;18319;48.974;8.462;2023-04-03T07:57:01;10.10;99.90
31747;DHT22;18319;48.974;8.462;2023-04-03T07:59:28;9.90;99.90
31747;DHT22;18319;48.974;8.462;2023-04-03T08:01:55;9.90;99.90
31747;DHT22;18319;48.974;8.462;2023-04-03T08:04:22;10.10;99.90
31747;DHT22;18319;48.974;8.462;2023-04-03T08:06:49;10.00;99.90
31747;DHT22;18319;48.974;8.462;2023-04-03T08:09:18;9.90;99.90
31747;DHT22;18319;48.974;8.462;2023-04-03T08:11:45;9.80;99.90
31747;DHT22;18319;48.974;8.462;2023-04-03T08:14:12;9.50;99.90
31747;DHT22;18319;48.974;8.462;2023-04-03T08:16:42;9.30;99.90
31747;DHT22;18319;48.974;8.462;2023-04-03T08:19:09;9.50;99.90
31747;DHT22;18319;48.974;8.462;2023-04-03T08:21:36;9.00;99.90
31747;DHT22;18319;48.974;8.462;2023-04-03T08:24:03;8.80;99.90
31747;DHT22;18319;48.974;8.462;2023-04-03T08:26:32;8.70;99.90
31747;DHT22;18319;48.974;8.462;2023-04-03T08:28:59;8.20;99.90
31747;DHT22;18319;48.974;8.462;2023-04-03T08:31:26;8.00;99.90
31747;DHT22;18319;48.974;8.462;2023-04-03T08:33:53;8.00;99.90
31747;DHT22;18319;48.974;8.462;2023-04-03T08:36:21;8.40;99.90
31747;DHT22;18319;48.974;8.462;2023-04-03T08:38:50;9.00;99.90
31747;DHT22;18319;48.974;8.462;2023-04-03T08:41:24;9.20;99.90
31747;DHT22;18319;48.974;8.462;2023-04-03T08:44:07;9.30;99.90
31747;DHT22;18319;48.974;8.462;2023-04-03T08:46:47;8.70;99.90
31747;DHT22;18319;48.974;8.462;2023-04-03T08:49:24;8.50;99.90
31747;DHT22;18319;48.974;8.462;2023-04-03T08:51:53;8.20;99.90
31747;DHT22;18319;48.974;8.462;2023-04-03T08:54:26;8.10;99.90
31747;DHT22;18319;48.974;8.462;2023-04-03T08:56:55;7.80;99.90
31747;DHT22;18319;48.974;8.462;2023-04-03T08:59:28;8.00;99.90
31747;DHT22;18319;48.974;8.462;2023-04-03T09:01:58;8.20;99.90
31747;DHT22;18319;48.974;8.462;2023-04-03T09:04:26;8.20;99.90
31747;DHT22;18319;48.974;8.462;2023-04-03T09:06:57;8.40;99.90
31747;DHT22;18319;48.974;8.462;2023-04-03T09:09:31;8.50;99.90
31747;DHT22;18319;48.974;8.462;2023-04-03T09:12:04;8.80;99.90
31747;DHT22;18319;48.974;8.462;2023-04-03T09:14:39;9.10;99.90
31747;DHT22;18319;48.974;8.462;2023-04-03T09:17:13;9.60;99.90
31747;DHT22;18319;48.974;8.462;2023-04-03T09:19:47;10.00;99.90
31747;DHT22;18319;48.974;8.462;2023-04-03T09:22:20;10.10;99.20
31747;DHT22;18319;48.974;8.462;2023-04-03T09:24:55;10.20;98.20
31747;DHT22;18319;48.974;8.462;2023-04-03T09:27:24;9.90;96.80
31747;DHT22;18319;48.974;8.462;2023-04-03T09:29:54;10.10;98.30
31747;DHT22;18319;48.974;8.462;2023-04-03T09:32:26;10.20;97.70
31747;DHT22;18319;48.974;8.462;2023-04-03T09:34:55;9.90;95.50
31747;DHT22;18319;48.974;8.462;2023-04-03T09:37:39;9.80;95.30
31747;DHT22;18319;48.974;8.462;2023-04-03T09:40:31;9.60;96.00
31747;DHT22;18319;48.974;8.462;2023-04-03T09:43:02;9.60;96.50
31747;DHT22;18319;48.974;8.462;2023-04-03T09:45:32;9.70;95.00
31747;DHT22;18319;48.974;8.462;2023-04-03T09:48:07;9.30;95.00
31747;DHT22;18319;48.974;8.462;2023-04-03T09:50:35;9.00;96.60
31747;DHT22;18319;48.974;8.462;2023-04-03T09:53:07;8.70;95.10
31747;DHT22;18319;48.974;8.462;2023-04-03T09:55:42;8.50;94.60
31747;DHT22;18319;48.974;8.462;2023-04-03T09:58:24;8.30;95.10
31747;DHT22;18319;48.974;8.462;2023-04-03T10:00:58;8.20;95.10
31747;DHT22;18319;48.974;8.462;2023-04-03T10:03:29;8.20;94.60
31747;DHT22;18319;48.974;8.462;2023-04-03T10:05:57;8.30;94.80
31747;DHT22;18319;48.974;8.462;2023-04-03T10:08:27;8.20;93.80
31747;DHT22;18319;48.974;8.462;2023-04-03T10:11:11;8.30;93.60
31747;DHT22;18319;48.974;8.462;2023-04-03T10:13:52;8.50;93.70
31747;DHT22;18319;48.974;8.462;2023-04-03T10:16:25;8.70;93.80
31747;DHT22;18319;48.974;8.462;2023-04-03T10:19:02;8.60;92.30
31747;DHT22;18319;48.974;8.462;2023-04-03T10:21:35;8.60;91.90
31747;DHT22;18319;48.974;8.462;2023-04-03T10:24:10;8.60;92.20
31747;DHT22;18319;48.974;8.462;2023-04-03T10:26:44;8.60;92.00
31747;DHT22;18319;48.974;8.462;2023-04-03T10:29:23;8.80;92.90
31747;DHT22;18319;48.974;8.462;2023-04-03T10:32:02;8.90;91.10
31747;DHT22;18319;48.974;8.462;2023-04-03T10:34:32;8.80;89.50
31747;DHT22;18319;48.974;8.462;2023-04-03T10:37:05;9.00;87.50
31747;DHT22;18319;48.974;8.462;2023-04-03T10:39:37;9.20;87.30
31747;DHT22;18319;48.974;8.462;2023-04-03T10:42:10;9.50;86.90
31747;DHT22;18319;48.974;8.462;2023-04-03T10:44:49;10.10;88.30
31747;DHT22;18319;48.974;8.462;2023-04-03T10:47:21;10.20;87.20
31747;DHT22;18319;48.974;8.462;2023-04-03T10:49:56;10.20;82.90
31747;DHT22;18319;48.974;8.462;2023-04-03T10:52:31;9.90;79.30
31747;DHT22;18319;48.974;8.462;2023-04-03T10:55:09;9.80;82.20
31747;DHT22;18319;48.974;8.462;2023-04-03T10:57:37;9.90;83.70
31747;DHT22;18319;48.974;8.462;2023-04-03T11:00:13;9.50;80.10
31747;DHT22;18319;48.974;8.462;2023-04-03T11:02:49;9.70;81.40
31747;DHT22;18319;48.974;8.462;2023-04-03T11:05:25;9.80;80.80
31747;DHT22;18319;48.974;8.462;2023-04-03T11:07:54;9.80;76.30
31747;DHT22;18319;48.974;8.462;2023-04-03T11:10:29;10.00;78.10
31747;DHT22;18319;48.974;8.462;2023-04-03T11:13:02;10.00;74.20
31747;DHT22;18319;48.974;8.462;2023-04-03T11:15:33;9.50;71.10
31747;DHT22;18319;48.974;8.462;2023-04-03T11:18:04;9.90;71.70
31747;DHT22;18319;48.974;8.462;2023-04-03T11:20:33;10.30;71.20
31747;DHT22;18319;48.974;8.462;2023-04-03T11:23:05;10.40;73.00
31747;DHT22;18319;48.974;8.462;2023-04-03T11:25:35;10.30;71.20
31747;DHT22;18319;48.974;8.462;2023-04-03T11:28:04;10.40;70.60
31747;DHT22;18319;48.974;8.462;2023-04-03T11:30:36;10.50;70.60
31747;DHT22;18319;48.974;8.462;2023-04-03T11:35:59;10.50;72.40
31747;DHT22;18319;48.974;8.462;2023-04-03T11:38:30;10.60;70.90
31747;DHT22;18319;48.974;8.462;2023-04-03T11:41:02;10.70;67.00
31747;DHT22;18319;48.974;8.462;2023-04-03T11:43:30;10.60;68.30
31747;DHT22;18319;48.974;8.462;2023-04-03T11:46:00;10.50;67.80
31747;DHT22;18319;48.974;8.462;2023-04-03T11:48:50;10.50;68.40
31747;DHT22;18319;48.974;8.462;2023-04-03T11:51:49;10.30;67.80
31747;DHT22;18319;48.974;8.462;2023-04-03T11:54:42;9.80;66.80
31747;DHT22;18319;48.974;8.462;2023-04-03T12:00:53;10.00;68.20
31747;DHT22;18319;48.974;8.462;2023-04-03T12:12:38;10.60;64.10
31747;DHT22;18319;48.974;8.462;2023-04-03T12:15:41;10.50;66.00
31747;DHT22;18319;48.974;8.462;2023-04-03T12:21:18;9.80;66.00
31747;DHT22;18319;48.974;8.462;2023-04-03T12:24:02;9.60;67.60
31747;DHT22;18319;48.974;8.462;2023-04-03T12:26:40;9.80;68.10
31747;DHT22;18319;48.974;8.462;2023-04-03T12:29:15;10.10;67.50
31747;DHT22;18319;48.974;8.462;2023-04-03T12:31:52;10.10;67.20
31747;DHT22;18319;48.974;8.462;2023-04-03T12:34:33;10.00;68.40
31747;DHT22;18319;48.974;8.462;2023-04-03T12:37:09;9.90;66.50
31747;DHT22;18319;48.974;8.462;2023-04-03T12:39:53;9.80;64.70
31747;DHT22;18319;48.974;8.462;2023-04-03T12:42:35;10.10;67.70
31747;DHT22;18319;48.974;8.462;2023-04-03T12:45:16;10.10;67.50
31747;DHT22;18319;48.974;8.462;2023-04-03T12:47:45;10.20;68.20
31747;DHT22;18319;48.974;8.462;2023-04-03T12:50:23;10.10;63.50
31747;DHT22;18319;48.974;8.462;2023-04-03T12:52:55;9.90;67.10
31747;DHT22;18319;48.974;8.462;2023-04-03T12:55:23;9.80;67.40
31747;DHT22;18319;48.974;8.462;2023-04-03T12:57:51;9.80;69.00
31747;DHT22;18319;48.974;8.462;2023-04-03T13:00:36;9.70;68.60
31747;DHT22;18319;48.974;8.462;2023-04-03T13:03:06;9.70;66.10
31747;DHT22;18319;48.974;8.462;2023-04-03T13:05:33;9.70;66.50
31747;DHT22;18319;48.974;8.462;2023-04-03T13:08:03;9.70;65.50
31747;DHT22;18319;48.974;8.462;2023-04-03T13:10:31;9.80;66.20
31747;DHT22;18319;48.974;8.462;2023-04-03T13:13:08;9.80;66.00
31747;DHT22;18319;48.974;8.462;2023-04-03T13:15:42;9.50;64.30
31747;DHT22;18319;48.974;8.462;2023-04-03T13:18:22;9.50;66.60
31747;DHT22;18319;48.974;8.462;2023-04-03T13:20:50;9.60;65.50
31747;DHT22;18319;48.974;8.462;2023-04-03T13:23:17;9.70;65.20
31747;DHT22;18319;48.974;8.462;2023-04-03T13:25:46;9.60;63.50
31747;DHT22;18319;48.974;8.462;2023-04-03T13:28:17;9.90;66.70
31747;DHT22;18319;48.974;8.462;2023-04-03T13:30:59;10.00;63.00
31747;DHT22;18319;48.974;8.462;2023-04-03T13:33:30;10.10;63.50
31747;DHT22;18319;48.974;8.462;2023-04-03T13:36:01;10.30;65.80
31747;DHT22;18319;48.974;8.462;2023-04-03T13:38:31;10.10;60.10
31747;DHT22;18319;48.974;8.462;2023-04-03T13:41:00;9.70;59.80
31747;DHT22;18319;48.974;8.462;2023-04-03T13:43:31;9.80;62.80
31747;DHT22;18319;48.974;8.462;2023-04-03T13:46:02;9.60;59.10
31747;DHT22;18319;48.974;8.462;2023-04-03T13:48:39;9.60;59.60
31747;DHT22;18319;48.974;8.462;2023-04-03T13:51:17;9.80;61.00
31747;DHT22;18319;48.974;8.462;2023-04-03T13:53:47;10.00;59.80
31747;DHT22;18319;48.974;8.462;2023-04-03T13:56:21;10.00;59.60
31747;DHT22;18319;48.974;8.462;2023-04-03T13:59:02;10.00;60.60
31747;DHT22;18319;48.974;8.462;2023-04-03T14:01:41;10.00;59.80
31747;DHT22;18319;48.974;8.462;2023-04-03T14:04:15;9.70;58.70
31747;DHT22;18319;48.974;8.462;2023-04-03T14:06:42;9.50;58.00
31747;DHT22;18319;48.974;8.462;2023-04-03T14:09:09;9.70;58.30
31747;DHT22;18319;48.974;8.462;2023-04-03T14:11:36;9.90;59.90
31747;DHT22;18319;48.974;8.462;2023-04-03T14:14:11;9.90;59.30
31747;DHT22;18319;48.974;8.462;2023-04-03T14:16:42;10.10;60.90
31747;DHT22;18319;48.974;8.462;2023-04-03T14:19:17;10.00;58.90
31747;DHT22;18319;48.974;8.462;2023-04-03T14:21:45;10.00;58.30
31747;DHT22;18319;48.974;8.462;2023-04-03T14:24:12;9.80;56.90
31747;DHT22;18319;48.974;8.462;2023-04-03T14:26:39;9.80;58.50
31747;DHT22;18319;48.974;8.462;2023-04-03T14:29:10;9.70;60.30
31747;DHT22;18319;48.974;8.462;2023-04-03T14:31:37;9.80;58.30
31747;DHT22;18319;48.974;8.462;2023-04-03T14:34:04;9.90;60.00
31747;DHT22;18319;48.974;8.462;2023-04-03T14:36:35;10.00;60.40
31747;DHT22;18319;48.974;8.462;2023-04-03T14:39:03;9.90;58.00
31747;DHT22;18319;48.974;8.462;2023-04-03T14:41:30;9.90;58.10
31747;DHT22;18319;48.974;8.462;2023-04-03T14:43:57;9.70;56.00
31747;DHT22;18319;48.974;8.462;2023-04-03T14:46:28;9.60;57.20
31747;DHT22;18319;48.974;8.462;2023-04-03T14:48:56;9.70;58.40
31747;DHT22;18319;48.974;8.462;2023-04-03T14:51:22;9.70;59.20
31747;DHT22;18319;48.974;8.462;2023-04-03T14:53:50;9.70;59.40
31747;DHT22;18319;48.974;8.462;2023-04-03T14:56:19;9.60;58.10
31747;DHT22;18319;48.974;8.462;2023-04-03T14:58:48;9.50;57.60
31747;DHT22;18319;48.974;8.462;2023-04-03T15:01:16;9.40;58.00
31747;DHT22;18319;48.974;8.462;2023-04-03T15:03:44;9.30;58.60
31747;DHT22;18319;48.974;8.462;2023-04-03T15:06:12;9.10;57.20
31747;DHT22;18319;48.974;8.462;2023-04-03T15:08:40;9.10;56.70
31747;DHT22;18319;48.974;8.462;2023-04-03T15:11:08;8.80;56.10
31747;DHT22;18319;48.974;8.462;2023-04-03T15:13:35;8.80;57.80
31747;DHT22;18319;48.974;8.462;2023-04-03T15:16:02;8.90;58.00
31747;DHT22;18319;48.974;8.462;2023-04-03T15:18:35;9.10;57.80
31747;DHT22;18319;48.974;8.462;2023-04-03T15:21:05;9.10;57.20
31747;DHT22;18319;48.974;8.462;2023-04-03T15:23:32;9.00;56.60
31747;DHT22;18319;48.974;8.462;2023-04-03T15:25:59;8.90;57.10
31747;DHT22;18319;48.974;8.462;2023-04-03T15:28:28;8.50;57.20
31747;DHT22;18319;48.974;8.462;2023-04-03T15:30:56;8.30;58.90
31747;DHT22;18319;48.974;8.462;2023-04-03T15:33:23;8.00;59.20
31747;DHT22;18319;48.974;8.462;2023-04-03T15:35:50;7.90;59.50
31747;DHT22;18319;48.974;8.462;2023-04-03T15:38:18;7.90;58.60
31747;DHT22;18319;48.974;8.462;2023-04-03T15:40:45;7.90;58.40
31747;DHT22;18319;48.974;8.462;2023-04-03T15:43:14;8.00;56.70
31747;DHT22;18319;48.974;8.462;2023-04-03T15:45:41;8.30;58.20
31747;DHT22;18319;48.974;8.462;2023-04-03T15:48:10;8.70;58.40
31747;DHT22;18319;48.974;8.462;2023-04-03T15:50:37;8.90;55.70
31747;DHT22;18319;48.974;8.462;2023-04-03T15:53:05;8.90;55.50
31747;DHT22;18319;48.974;8.462;2023-04-03T15:55:35;8.80;55.70
31747;DHT22;18319;48.974;8.462;2023-04-03T15:58:03;8.60;57.30
31747;DHT22;18319;48.974;8.462;2023-04-03T16:00:30;8.30;56.40
31747;DHT22;18319;48.974;8.462;2023-04-03T16:03:00;8.00;54.80
31747;DHT22;18319;48.974;8.462;2023-04-03T16:05:29;7.80;56.20
31747;DHT22;18319;48.974;8.462;2023-04-03T16:07:57;7.50;56.80
31747;DHT22;18319;48.974;8.462;2023-04-03T16:10:24;7.50;57.30
31747;DHT22;18319;48.974;8.462;2023-04-03T16:12:52;7.50;57.90
31747;DHT22;18319;48.974;8.462;2023-04-03T16:15:19;7.70;57.80
31747;DHT22;18319;48.974;8.462;2023-04-03T16:17:46;7.80;58.40
31747;DHT22;18319;48.974;8.462;2023-04-03T16:20:14;7.90;58.60
31747;DHT22;18319;48.974;8.462;2023-04-03T16:22:42;8.00;60.30